sensor_id;sensor_type;location;lat;lon;timestamp;P1;durP1;ratioP1;P2;durP2;ratioP2
46110;SDS011;31849;55.992;37.252;2022-10-17T00:05:04;7.28;;;3.65;;
46110;SDS011;31849;55.992;37.252;2022-10-17T00:10:08;7.63;;;3.38;;
46110;SDS011;31849;55.992;37.252;2022-10-17T00:15:15;5.97;;;3.80;;
46110;SDS011;31849;55.992;37.252;2022-10-17T00:20:20;9.10;;;3.08;;
46110;SDS011;31849;55.992;37.252;2022-10-17T00:25:25;8.80;;;3.30;;
46110;SDS011;31849;55.992;37.252;2022-10-17T00:30:30;6.27;;;3.30;;
46110;SDS011;31849;55.992;37.252;2022-10-17T00:35:35;5.72;;;3.53;;
46110;SDS011;31849;55.992;37.252;2022-10-17T00:40:39;5.70;;;3.07;;
46110;SDS011;31849;55.992;37.252;2022-10-17T00:45:44;7.40;;;3.43;;
46110;SDS011;31849;55.992;37.252;2022-10-17T00:50:49;5.80;;;3.40;;
46110;SDS011;31849;55.992;37.252;2022-10-17T00:55:53;10.30;;;3.60;;
46110;SDS011;31849;55.992;37.252;2022-10-17T01:00:58;7.07;;;3.88;;
46110;SDS011;31849;55.992;37.252;2022-10-17T01:06:03;5.30;;;3.47;;
46110;SDS011;31849;55.992;37.252;2022-10-17T01:11:10;7.43;;;3.53;;
46110;SDS011;31849;55.992;37.252;2022-10-17T01:16:26;5.30;;;3.45;;
46110;SDS011;31849;55.992;37.252;2022-10-17T01:21:42;8.00;;;3.45;;
46110;SDS011;31849;55.992;37.252;2022-10-17T01:26:58;5.65;;;3.03;;
46110;SDS011;31849;55.992;37.252;2022-10-17T01:32:28;6.60;;;3.60;;
46110;SDS011;31849;55.992;37.252;2022-10-17T01:37:38;6.20;;;3.60;;
46110;SDS011;31849;55.992;37.252;2022-10-17T01:42:50;7.97;;;3.78;;
46110;SDS011;31849;55.992;37.252;2022-10-17T01:48:02;7.13;;;3.60;;
46110;SDS011;31849;55.992;37.252;2022-10-17T01:53:10;10.18;;;3.83;;
46110;SDS011;31849;55.992;37.252;2022-10-17T01:58:19;6.45;;;3.53;;
46110;SDS011;31849;55.992;37.252;2022-10-17T02:03:30;6.22;;;3.60;;
46110;SDS011;31849;55.992;37.252;2022-10-17T02:08:40;7.57;;;3.65;;
46110;SDS011;31849;55.992;37.252;2022-10-17T02:13:55;7.72;;;3.47;;
46110;SDS011;31849;55.992;37.252;2022-10-17T02:19:29;7.88;;;3.25;;
46110;SDS011;31849;55.992;37.252;2022-10-17T02:24:42;8.57;;;3.95;;
46110;SDS011;31849;55.992;37.252;2022-10-17T02:29:53;10.18;;;4.10;;
46110;SDS011;31849;55.992;37.252;2022-10-17T02:35:06;7.25;;;3.97;;
46110;SDS011;31849;55.992;37.252;2022-10-17T02:40:12;12.43;;;4.18;;
46110;SDS011;31849;55.992;37.252;2022-10-17T02:45:21;8.07;;;4.20;;
46110;SDS011;31849;55.992;37.252;2022-10-17T02:50:32;6.65;;;3.80;;
46110;SDS011;31849;55.992;37.252;2022-10-17T02:55:47;8.45;;;3.50;;
46110;SDS011;31849;55.992;37.252;2022-10-17T03:00:55;7.97;;;3.60;;
46110;SDS011;31849;55.992;37.252;2022-10-17T03:11:06;5.20;;;3.67;;
46110;SDS011;31849;55.992;37.252;2022-10-17T03:16:09;8.33;;;3.87;;
46110;SDS011;31849;55.992;37.252;2022-10-17T03:21:15;6.70;;;3.97;;
46110;SDS011;31849;55.992;37.252;2022-10-17T03:26:19;7.10;;;3.78;;
46110;SDS011;31849;55.992;37.252;2022-10-17T03:31:23;8.70;;;3.95;;
46110;SDS011;31849;55.992;37.252;2022-10-17T03:36:29;6.90;;;3.87;;
46110;SDS011;31849;55.992;37.252;2022-10-17T03:41:33;10.38;;;3.78;;
46110;SDS011;31849;55.992;37.252;2022-10-17T03:46:37;7.50;;;4.20;;
46110;SDS011;31849;55.992;37.252;2022-10-17T03:51:43;7.13;;;3.63;;
46110;SDS011;31849;55.992;37.252;2022-10-17T03:56:47;7.68;;;3.97;;
46110;SDS011;31849;55.992;37.252;2022-10-17T04:01:50;8.63;;;4.28;;
46110;SDS011;31849;55.992;37.252;2022-10-17T04:06:56;8.57;;;4.00;;
46110;SDS011;31849;55.992;37.252;2022-10-17T04:12:00;7.75;;;4.00;;
46110;SDS011;31849;55.992;37.252;2022-10-17T04:17:04;11.93;;;4.40;;
46110;SDS011;31849;55.992;37.252;2022-10-17T04:22:09;7.33;;;3.73;;
46110;SDS011;31849;55.992;37.252;2022-10-17T04:27:13;8.07;;;4.22;;
46110;SDS011;31849;55.992;37.252;2022-10-17T04:32:17;6.80;;;3.83;;
46110;SDS011;31849;55.992;37.252;2022-10-17T04:37:22;6.78;;;3.75;;
46110;SDS011;31849;55.992;37.252;2022-10-17T04:42:27;7.00;;;3.60;;
46110;SDS011;31849;55.992;37.252;2022-10-17T04:47:31;7.45;;;3.75;;
46110;SDS011;31849;55.992;37.252;2022-10-17T04:52:36;8.67;;;4.33;;
46110;SDS011;31849;55.992;37.252;2022-10-17T04:57:40;8.40;;;4.32;;
46110;SDS011;31849;55.992;37.252;2022-10-17T05:02:44;11.73;;;4.90;;
46110;SDS011;31849;55.992;37.252;2022-10-17T05:07:48;6.72;;;4.60;;
46110;SDS011;31849;55.992;37.252;2022-10-17T05:12:52;7.35;;;4.35;;
46110;SDS011;31849;55.992;37.252;2022-10-17T05:17:56;8.40;;;4.65;;
46110;SDS011;31849;55.992;37.252;2022-10-17T05:23:02;6.53;;;4.35;;
46110;SDS011;31849;55.992;37.252;2022-10-17T05:28:05;8.30;;;4.43;;
46110;SDS011;31849;55.992;37.252;2022-10-17T05:33:09;9.13;;;4.90;;
46110;SDS011;31849;55.992;37.252;2022-10-17T05:38:14;12.70;;;4.60;;
46110;SDS011;31849;55.992;37.252;2022-10-17T05:43:18;6.35;;;4.03;;
46110;SDS011;31849;55.992;37.252;2022-10-17T05:48:22;10.40;;;4.57;;
46110;SDS011;31849;55.992;37.252;2022-10-17T05:58:33;9.85;;;4.30;;
46110;SDS011;31849;55.992;37.252;2022-10-17T06:03:51;9.50;;;4.30;;
46110;SDS011;31849;55.992;37.252;2022-10-17T06:08:56;7.00;;;4.20;;
46110;SDS011;31849;55.992;37.252;2022-10-17T06:14:00;7.78;;;4.25;;
46110;SDS011;31849;55.992;37.252;2022-10-17T06:19:03;7.53;;;4.25;;
46110;SDS011;31849;55.992;37.252;2022-10-17T06:24:09;6.60;;;4.13;;
46110;SDS011;31849;55.992;37.252;2022-10-17T06:29:12;5.85;;;4.20;;
46110;SDS011;31849;55.992;37.252;2022-10-17T06:34:16;9.27;;;4.50;;
46110;SDS011;31849;55.992;37.252;2022-10-17T06:39:21;8.15;;;4.47;;
46110;SDS011;31849;55.992;37.252;2022-10-17T06:44:28;7.03;;;4.30;;
46110;SDS011;31849;55.992;37.252;2022-10-17T06:49:32;8.48;;;4.47;;
46110;SDS011;31849;55.992;37.252;2022-10-17T06:54:38;10.48;;;4.22;;
46110;SDS011;31849;55.992;37.252;2022-10-17T06:59:41;9.75;;;4.25;;
46110;SDS011;31849;55.992;37.252;2022-10-17T07:04:45;8.90;;;4.50;;
46110;SDS011;31849;55.992;37.252;2022-10-17T07:09:51;7.82;;;4.07;;
46110;SDS011;31849;55.992;37.252;2022-10-17T07:14:55;7.05;;;4.35;;
46110;SDS011;31849;55.992;37.252;2022-10-17T07:19:58;9.98;;;4.60;;
46110;SDS011;31849;55.992;37.252;2022-10-17T07:25:06;8.23;;;4.22;;
46110;SDS011;31849;55.992;37.252;2022-10-17T07:30:12;7.05;;;4.03;;
46110;SDS011;31849;55.992;37.252;2022-10-17T07:35:17;10.13;;;4.20;;
46110;SDS011;31849;55.992;37.252;2022-10-17T07:40:23;9.15;;;4.68;;
46110;SDS011;31849;55.992;37.252;2022-10-17T07:45:27;8.18;;;4.47;;
46110;SDS011;31849;55.992;37.252;2022-10-17T07:50:31;11.35;;;4.63;;
46110;SDS011;31849;55.992;37.252;2022-10-17T07:55:37;9.50;;;5.00;;
46110;SDS011;31849;55.992;37.252;2022-10-17T08:00:41;6.57;;;4.55;;
46110;SDS011;31849;55.992;37.252;2022-10-17T08:05:45;11.82;;;5.70;;
46110;SDS011;31849;55.992;37.252;2022-10-17T08:10:50;13.33;;;6.07;;
46110;SDS011;31849;55.992;37.252;2022-10-17T08:15:57;9.80;;;5.70;;
46110;SDS011;31849;55.992;37.252;2022-10-17T08:21:02;9.40;;;4.70;;
46110;SDS011;31849;55.992;37.252;2022-10-17T08:26:09;9.07;;;4.60;;
46110;SDS011;31849;55.992;37.252;2022-10-17T08:31:15;10.20;;;4.70;;
46110;SDS011;31849;55.992;37.252;2022-10-17T08:36:20;7.50;;;4.57;;
46110;SDS011;31849;55.992;37.252;2022-10-17T08:41:32;9.73;;;5.07;;
46110;SDS011;31849;55.992;37.252;2022-10-17T08:46:46;8.80;;;4.97;;
46110;SDS011;31849;55.992;37.252;2022-10-17T08:51:56;11.02;;;5.35;;
46110;SDS011;31849;55.992;37.252;2022-10-17T08:57:08;12.60;;;6.60;;
46110;SDS011;31849;55.992;37.252;2022-10-17T09:02:33;8.25;;;5.82;;
46110;SDS011;31849;55.992;37.252;2022-10-17T09:07:43;12.52;;;6.25;;
46110;SDS011;31849;55.992;37.252;2022-10-17T09:13:00;10.57;;;5.50;;
46110;SDS011;31849;55.992;37.252;2022-10-17T09:18:14;10.73;;;5.80;;
46110;SDS011;31849;55.992;37.252;2022-10-17T09:23:23;10.18;;;5.05;;
46110;SDS011;31849;55.992;37.252;2022-10-17T09:28:32;8.30;;;5.43;;
46110;SDS011;31849;55.992;37.252;2022-10-17T09:33:38;10.00;;;5.88;;
46110;SDS011;31849;55.992;37.252;2022-10-17T09:38:55;14.25;;;6.05;;
46110;SDS011;31849;55.992;37.252;2022-10-17T09:44:10;12.80;;;5.70;;
46110;SDS011;31849;55.992;37.252;2022-10-17T09:49:17;10.18;;;5.88;;
46110;SDS011;31849;55.992;37.252;2022-10-17T09:54:32;11.75;;;6.10;;
46110;SDS011;31849;55.992;37.252;2022-10-17T09:59:44;11.37;;;5.90;;
46110;SDS011;31849;55.992;37.252;2022-10-17T10:04:54;12.73;;;6.30;;
46110;SDS011;31849;55.992;37.252;2022-10-17T10:10:21;10.80;;;6.18;;
46110;SDS011;31849;55.992;37.252;2022-10-17T10:15:31;10.25;;;6.55;;
46110;SDS011;31849;55.992;37.252;2022-10-17T10:20:39;9.68;;;6.53;;
46110;SDS011;31849;55.992;37.252;2022-10-17T10:25:51;12.25;;;6.70;;
46110;SDS011;31849;55.992;37.252;2022-10-17T10:31:01;15.93;;;6.55;;
46110;SDS011;31849;55.992;37.252;2022-10-17T10:36:08;11.50;;;7.20;;
46110;SDS011;31849;55.992;37.252;2022-10-17T10:41:12;15.70;;;7.97;;
46110;SDS011;31849;55.992;37.252;2022-10-17T10:46:18;15.03;;;6.83;;
46110;SDS011;31849;55.992;37.252;2022-10-17T10:51:26;13.25;;;6.93;;
46110;SDS011;31849;55.992;37.252;2022-10-17T10:56:33;11.77;;;7.25;;
46110;SDS011;31849;55.992;37.252;2022-10-17T11:01:42;13.15;;;7.20;;
46110;SDS011;31849;55.992;37.252;2022-10-17T11:06:52;10.25;;;6.70;;
46110;SDS011;31849;55.992;37.252;2022-10-17T11:12:02;16.50;;;7.95;;
46110;SDS011;31849;55.992;37.252;2022-10-17T11:17:21;11.13;;;7.80;;
46110;SDS011;31849;55.992;37.252;2022-10-17T11:22:34;14.20;;;8.18;;
46110;SDS011;31849;55.992;37.252;2022-10-17T11:27:44;16.00;;;7.45;;
46110;SDS011;31849;55.992;37.252;2022-10-17T11:32:50;10.98;;;8.10;;
46110;SDS011;31849;55.992;37.252;2022-10-17T11:38:00;13.90;;;7.90;;
46110;SDS011;31849;55.992;37.252;2022-10-17T11:43:12;13.48;;;8.57;;
46110;SDS011;31849;55.992;37.252;2022-10-17T11:48:21;15.60;;;9.13;;
46110;SDS011;31849;55.992;37.252;2022-10-17T11:53:30;12.38;;;8.10;;
46110;SDS011;31849;55.992;37.252;2022-10-17T11:58:45;15.07;;;8.50;;
46110;SDS011;31849;55.992;37.252;2022-10-17T12:09:21;13.50;;;8.93;;
46110;SDS011;31849;55.992;37.252;2022-10-17T12:14:38;14.40;;;8.88;;
46110;SDS011;31849;55.992;37.252;2022-10-17T12:19:46;15.23;;;8.90;;
46110;SDS011;31849;55.992;37.252;2022-10-17T12:24:57;13.65;;;8.82;;
46110;SDS011;31849;55.992;37.252;2022-10-17T12:30:05;12.98;;;8.25;;
46110;SDS011;31849;55.992;37.252;2022-10-17T12:35:20;13.45;;;9.18;;
46110;SDS011;31849;55.992;37.252;2022-10-17T12:45:57;13.43;;;9.65;;
46110;SDS011;31849;55.992;37.252;2022-10-17T12:51:04;14.93;;;9.13;;
46110;SDS011;31849;55.992;37.252;2022-10-17T12:56:33;15.93;;;9.63;;
46110;SDS011;31849;55.992;37.252;2022-10-17T13:01:39;14.43;;;10.05;;
46110;SDS011;31849;55.992;37.252;2022-10-17T13:06:51;16.50;;;10.00;;
46110;SDS011;31849;55.992;37.252;2022-10-17T13:11:58;15.20;;;9.63;;
46110;SDS011;31849;55.992;37.252;2022-10-17T13:17:04;15.27;;;9.30;;
46110;SDS011;31849;55.992;37.252;2022-10-17T13:27:21;17.08;;;9.98;;
46110;SDS011;31849;55.992;37.252;2022-10-17T13:32:34;13.82;;;9.50;;
46110;SDS011;31849;55.992;37.252;2022-10-17T13:37:40;16.25;;;9.82;;
46110;SDS011;31849;55.992;37.252;2022-10-17T13:42:45;14.07;;;9.50;;
46110;SDS011;31849;55.992;37.252;2022-10-17T13:47:49;14.63;;;9.23;;
46110;SDS011;31849;55.992;37.252;2022-10-17T13:53:07;15.30;;;9.68;;
46110;SDS011;31849;55.992;37.252;2022-10-17T13:58:21;16.08;;;10.15;;
46110;SDS011;31849;55.992;37.252;2022-10-17T14:03:25;16.50;;;10.50;;
46110;SDS011;31849;55.992;37.252;2022-10-17T14:08:51;17.23;;;10.70;;
46110;SDS011;31849;55.992;37.252;2022-10-17T14:13:58;17.58;;;10.82;;
46110;SDS011;31849;55.992;37.252;2022-10-17T14:24:13;18.65;;;11.25;;
46110;SDS011;31849;55.992;37.252;2022-10-17T14:29:26;19.63;;;12.00;;
46110;SDS011;31849;55.992;37.252;2022-10-17T14:34:32;27.63;;;12.55;;
46110;SDS011;31849;55.992;37.252;2022-10-17T14:39:38;20.45;;;12.30;;
46110;SDS011;31849;55.992;37.252;2022-10-17T14:44:42;24.17;;;14.10;;
46110;SDS011;31849;55.992;37.252;2022-10-17T14:50:01;24.23;;;13.35;;
46110;SDS011;31849;55.992;37.252;2022-10-17T14:55:19;23.60;;;13.25;;
46110;SDS011;31849;55.992;37.252;2022-10-17T15:00:24;21.88;;;13.45;;
46110;SDS011;31849;55.992;37.252;2022-10-17T15:05:28;20.92;;;13.02;;
46110;SDS011;31849;55.992;37.252;2022-10-17T15:10:34;17.92;;;12.18;;
46110;SDS011;31849;55.992;37.252;2022-10-17T15:15:42;24.25;;;13.07;;
46110;SDS011;31849;55.992;37.252;2022-10-17T15:20:46;22.40;;;12.07;;
46110;SDS011;31849;55.992;37.252;2022-10-17T15:31:20;20.88;;;12.70;;
46110;SDS011;31849;55.992;37.252;2022-10-17T15:36:25;19.00;;;12.95;;
46110;SDS011;31849;55.992;37.252;2022-10-17T15:41:31;22.85;;;13.07;;
46110;SDS011;31849;55.992;37.252;2022-10-17T15:46:35;18.98;;;11.55;;
46110;SDS011;31849;55.992;37.252;2022-10-17T15:51:42;20.33;;;11.82;;
46110;SDS011;31849;55.992;37.252;2022-10-17T15:56:48;21.30;;;12.07;;
46110;SDS011;31849;55.992;37.252;2022-10-17T16:01:55;20.20;;;11.15;;
46110;SDS011;31849;55.992;37.252;2022-10-17T16:06:58;18.13;;;10.98;;
46110;SDS011;31849;55.992;37.252;2022-10-17T16:12:03;18.60;;;11.43;;
46110;SDS011;31849;55.992;37.252;2022-10-17T16:17:08;19.08;;;11.63;;
46110;SDS011;31849;55.992;37.252;2022-10-17T16:22:16;18.45;;;11.43;;
46110;SDS011;31849;55.992;37.252;2022-10-17T16:27:24;18.17;;;11.68;;
46110;SDS011;31849;55.992;37.252;2022-10-17T16:32:27;17.85;;;10.52;;
46110;SDS011;31849;55.992;37.252;2022-10-17T16:37:32;18.87;;;10.90;;
46110;SDS011;31849;55.992;37.252;2022-10-17T16:42:37;17.33;;;9.30;;
46110;SDS011;31849;55.992;37.252;2022-10-17T16:47:41;19.15;;;10.88;;
46110;SDS011;31849;55.992;37.252;2022-10-17T16:52:44;18.38;;;11.48;;
46110;SDS011;31849;55.992;37.252;2022-10-17T16:57:49;20.73;;;12.02;;
46110;SDS011;31849;55.992;37.252;2022-10-17T17:07:56;17.90;;;11.00;;
46110;SDS011;31849;55.992;37.252;2022-10-17T17:13:01;19.15;;;12.15;;
46110;SDS011;31849;55.992;37.252;2022-10-17T17:18:05;16.95;;;11.55;;
46110;SDS011;31849;55.992;37.252;2022-10-17T17:23:09;19.07;;;11.80;;
46110;SDS011;31849;55.992;37.252;2022-10-17T17:28:18;17.42;;;11.93;;
46110;SDS011;31849;55.992;37.252;2022-10-17T17:33:23;17.35;;;10.70;;
46110;SDS011;31849;55.992;37.252;2022-10-17T17:38:29;21.55;;;11.85;;
46110;SDS011;31849;55.992;37.252;2022-10-17T17:43:35;18.73;;;11.73;;
46110;SDS011;31849;55.992;37.252;2022-10-17T17:48:39;19.35;;;12.57;;
46110;SDS011;31849;55.992;37.252;2022-10-17T17:53:44;20.00;;;11.68;;
46110;SDS011;31849;55.992;37.252;2022-10-17T17:58:54;19.80;;;11.25;;
46110;SDS011;31849;55.992;37.252;2022-10-17T18:04:00;17.55;;;12.27;;
46110;SDS011;31849;55.992;37.252;2022-10-17T18:09:04;20.50;;;13.57;;
46110;SDS011;31849;55.992;37.252;2022-10-17T18:14:11;23.40;;;13.20;;
46110;SDS011;31849;55.992;37.252;2022-10-17T18:19:15;25.30;;;13.43;;
46110;SDS011;31849;55.992;37.252;2022-10-17T18:29:24;24.38;;;13.93;;
46110;SDS011;31849;55.992;37.252;2022-10-17T18:34:28;20.92;;;12.50;;
46110;SDS011;31849;55.992;37.252;2022-10-17T18:39:31;21.85;;;12.20;;
46110;SDS011;31849;55.992;37.252;2022-10-17T18:44:37;24.48;;;13.60;;
46110;SDS011;31849;55.992;37.252;2022-10-17T18:49:41;23.63;;;12.85;;
46110;SDS011;31849;55.992;37.252;2022-10-17T18:54:45;20.90;;;12.73;;
46110;SDS011;31849;55.992;37.252;2022-10-17T18:59:50;20.23;;;13.50;;
46110;SDS011;31849;55.992;37.252;2022-10-17T19:04:54;22.02;;;13.25;;
46110;SDS011;31849;55.992;37.252;2022-10-17T19:09:57;21.35;;;13.52;;
46110;SDS011;31849;55.992;37.252;2022-10-17T19:15:05;22.30;;;13.88;;
46110;SDS011;31849;55.992;37.252;2022-10-17T19:20:11;25.15;;;14.50;;
46110;SDS011;31849;55.992;37.252;2022-10-17T19:25:14;26.83;;;16.00;;
46110;SDS011;31849;55.992;37.252;2022-10-17T19:30:19;27.52;;;14.98;;
46110;SDS011;31849;55.992;37.252;2022-10-17T19:35:23;23.77;;;15.52;;
46110;SDS011;31849;55.992;37.252;2022-10-17T19:40:27;25.33;;;15.70;;
46110;SDS011;31849;55.992;37.252;2022-10-17T19:45:31;23.13;;;15.45;;
46110;SDS011;31849;55.992;37.252;2022-10-17T19:50:35;26.90;;;15.90;;
46110;SDS011;31849;55.992;37.252;2022-10-17T19:55:41;29.50;;;17.15;;
46110;SDS011;31849;55.992;37.252;2022-10-17T20:00:47;27.08;;;17.70;;
46110;SDS011;31849;55.992;37.252;2022-10-17T20:05:51;23.73;;;15.27;;
46110;SDS011;31849;55.992;37.252;2022-10-17T20:10:54;27.23;;;15.13;;
46110;SDS011;31849;55.992;37.252;2022-10-17T20:16:01;24.90;;;15.98;;
46110;SDS011;31849;55.992;37.252;2022-10-17T20:21:06;28.38;;;16.55;;
46110;SDS011;31849;55.992;37.252;2022-10-17T20:26:13;28.35;;;16.00;;
46110;SDS011;31849;55.992;37.252;2022-10-17T20:31:40;28.40;;;16.55;;
46110;SDS011;31849;55.992;37.252;2022-10-17T20:36:44;26.55;;;17.48;;
46110;SDS011;31849;55.992;37.252;2022-10-17T20:46:54;27.67;;;15.80;;
46110;SDS011;31849;55.992;37.252;2022-10-17T20:52:03;29.08;;;16.52;;
46110;SDS011;31849;55.992;37.252;2022-10-17T20:57:07;23.75;;;15.10;;
46110;SDS011;31849;55.992;37.252;2022-10-17T21:02:12;25.67;;;16.00;;
46110;SDS011;31849;55.992;37.252;2022-10-17T21:12:18;25.92;;;14.15;;
46110;SDS011;31849;55.992;37.252;2022-10-17T21:17:38;24.08;;;15.18;;
46110;SDS011;31849;55.992;37.252;2022-10-17T21:22:42;23.95;;;14.90;;
46110;SDS011;31849;55.992;37.252;2022-10-17T21:27:45;26.08;;;14.68;;
46110;SDS011;31849;55.992;37.252;2022-10-17T21:32:52;18.83;;;12.43;;
46110;SDS011;31849;55.992;37.252;2022-10-17T21:37:56;22.15;;;12.98;;
46110;SDS011;31849;55.992;37.252;2022-10-17T21:43:00;25.00;;;13.43;;
46110;SDS011;31849;55.992;37.252;2022-10-17T21:48:05;19.05;;;12.52;;
46110;SDS011;31849;55.992;37.252;2022-10-17T21:53:13;23.48;;;14.07;;
46110;SDS011;31849;55.992;37.252;2022-10-17T21:58:16;21.10;;;12.80;;
46110;SDS011;31849;55.992;37.252;2022-10-17T22:03:22;21.97;;;13.57;;
46110;SDS011;31849;55.992;37.252;2022-10-17T22:08:25;21.13;;;12.55;;
46110;SDS011;31849;55.992;37.252;2022-10-17T22:13:29;22.10;;;13.07;;
46110;SDS011;31849;55.992;37.252;2022-10-17T22:18:34;16.83;;;12.20;;
46110;SDS011;31849;55.992;37.252;2022-10-17T22:23:38;20.10;;;12.18;;
46110;SDS011;31849;55.992;37.252;2022-10-17T22:28:42;22.90;;;12.82;;
46110;SDS011;31849;55.992;37.252;2022-10-17T22:33:47;19.20;;;11.53;;
46110;SDS011;31849;55.992;37.252;2022-10-17T22:38:51;19.45;;;11.68;;
46110;SDS011;31849;55.992;37.252;2022-10-17T22:43:54;17.73;;;10.82;;
46110;SDS011;31849;55.992;37.252;2022-10-17T22:48:59;19.70;;;10.95;;
46110;SDS011;31849;55.992;37.252;2022-10-17T22:54:03;17.00;;;9.95;;
46110;SDS011;31849;55.992;37.252;2022-10-17T22:59:07;15.82;;;10.27;;
46110;SDS011;31849;55.992;37.252;2022-10-17T23:04:12;15.57;;;9.53;;
46110;SDS011;31849;55.992;37.252;2022-10-17T23:09:16;14.10;;;8.90;;
46110;SDS011;31849;55.992;37.252;2022-10-17T23:14:20;14.77;;;8.50;;
46110;SDS011;31849;55.992;37.252;2022-10-17T23:19:24;11.60;;;7.88;;
46110;SDS011;31849;55.992;37.252;2022-10-17T23:24:28;14.90;;;8.57;;
46110;SDS011;31849;55.992;37.252;2022-10-17T23:29:31;14.57;;;7.55;;
46110;SDS011;31849;55.992;37.252;2022-10-17T23:34:37;16.27;;;8.02;;
46110;SDS011;31849;55.992;37.252;2022-10-17T23:39:40;15.73;;;8.57;;
46110;SDS011;31849;55.992;37.252;2022-10-17T23:44:44;13.18;;;7.90;;
46110;SDS011;31849;55.992;37.252;2022-10-17T23:49:49;12.88;;;7.85;;
46110;SDS011;31849;55.992;37.252;2022-10-17T23:54:52;12.50;;;7.43;;
46110;SDS011;31849;55.992;37.252;2022-10-17T23:59:55;15.38;;;7.82;;
